Metropolitan Oakland International Airport
KOAK : now visible

Airfield :











YOU CAN JOIN US ON...

 
LOGIN :

Register | Disclaimer

   EN    FR    IT 

 









Legend :    VFR   Marginal VFR   IFR   Intensive IFR   Very Intensive IFR
Visi :
Ceiling :
>= 8 km
>= 3000ft
5 to 8 km
1000 to 3000 ft
1500m to 5 km
500 to 1000 ft
800 to 1500m
200 to 500 ft
< 800m
< 200 ft
Symbols :   Thunderstorms  Fog  Heavy snow  Heavy precipitations  Wind > 20 kt






- Airport Elevation : 9 ft
- IATA code : OAK


KOAK - Metropolitan Oakland International

CURRENT METAR :
  • 240553Z 10005KT 10SM CLR 08/04 A2997 RMK AO2 SLP148 T00830044 10139 20083 53000

EXPIRED METARs :
  • 240453Z 09004KT 10SM CLR 09/05 A2997 RMK AO2 SLP146 T00890050
  • 240353Z 00000KT 10SM FEW015 12/07 A2997 RMK AO2 SLP148 T01170067

TAF KOAK
Valid from the 24 at 06:00 until the 25 at 12:00 UTC


240520Z 2406/2512 29004KT P6SM SCT020
FM241000 VRB03KT P6SM BKN015
FM241700 24006KT P6SM SCT020 BKN120
FM242000 22011G16KT P6SM VCSH SCT020 BKN040 OVC080
FM242300 24013G20KT 6SM RA BR OVC025
FM250300 28018G28KT 5SM -RA BR BKN030 OVC040
FM250600 28018KT P6SM -SHRA OVC030
KZOA FIR / North America



MET'MAP, your aeronautical weather chart ! - Copyright ORBIFLY December 2007 - Disclaimer

ORBIFLY MET'MAP TEAM :

Programming & Development : Alexandra Zaïnal
Concept & original design : Baudouin d'Aumeries
Assistance for programming : Marc-Olivier Méhu
Technical & hardware support : Manuel Goepfert

Contact : metmap@orbifly.com




SOURCES & CREDITS :

   NOAA       Earth
Advisory